Terminal Aerodrome Forecast
Issued by NWS Green Bay, WI

Home | Current Version | Previous Version | Graphics & Text | Print | Product List | Glossary On
Versions: 1 2 3 4 5 6 7 8 9 10 11 12 13 14 15 16 17 18 19 20 21 22 23 24 25 26 27 28
931
FTUS43 KGRB 031729
TAFGRB
TAF
KGRB 031729Z 0318/0418 27012G20KT P6SM SCT080 BKN200
     FM032200 27015G21KT P6SM VCSH BKN060
      TEMPO 0322/0402 3SM -TSRA BKN040CB
     FM040200 30010KT P6SM VCSH SCT040 BKN100
     FM040800 35012KT P6SM SCT025 BKN040
     FM041300 34016G26KT P6SM BKN035=

USA.gov is the U.S. government's official web portal to all federal, state and local government web resources and services.